sensor_id;sensor_type;location;lat;lon;timestamp;P1;durP1;ratioP1;P2;durP2;ratioP2
14205;SDS011;7186;48.800;9.216;2022-12-16T00:02:08;35.33;;;20.33;;
14205;SDS011;7186;48.800;9.216;2022-12-16T00:04:33;40.20;;;20.87;;
14205;SDS011;7186;48.800;9.216;2022-12-16T00:06:58;42.17;;;20.87;;
14205;SDS011;7186;48.800;9.216;2022-12-16T00:09:23;42.97;;;21.80;;
14205;SDS011;7186;48.800;9.216;2022-12-16T00:11:48;40.47;;;21.73;;
14205;SDS011;7186;48.800;9.216;2022-12-16T00:14:14;38.20;;;21.43;;
14205;SDS011;7186;48.800;9.216;2022-12-16T00:16:39;42.63;;;20.63;;
14205;SDS011;7186;48.800;9.216;2022-12-16T00:19:04;41.10;;;22.53;;
14205;SDS011;7186;48.800;9.216;2022-12-16T00:21:29;38.27;;;20.60;;
14205;SDS011;7186;48.800;9.216;2022-12-16T00:23:55;40.10;;;21.47;;
14205;SDS011;7186;48.800;9.216;2022-12-16T00:26:21;39.60;;;20.40;;
14205;SDS011;7186;48.800;9.216;2022-12-16T00:28:46;42.77;;;22.33;;
14205;SDS011;7186;48.800;9.216;2022-12-16T00:31:11;42.97;;;21.57;;
14205;SDS011;7186;48.800;9.216;2022-12-16T00:33:37;46.17;;;23.23;;
14205;SDS011;7186;48.800;9.216;2022-12-16T00:36:02;44.53;;;23.27;;
14205;SDS011;7186;48.800;9.216;2022-12-16T00:38:27;42.90;;;22.43;;
14205;SDS011;7186;48.800;9.216;2022-12-16T00:40:52;39.27;;;21.50;;
14205;SDS011;7186;48.800;9.216;2022-12-16T00:43:18;44.43;;;22.57;;
14205;SDS011;7186;48.800;9.216;2022-12-16T00:45:44;39.17;;;20.93;;
14205;SDS011;7186;48.800;9.216;2022-12-16T00:48:09;46.37;;;22.13;;
14205;SDS011;7186;48.800;9.216;2022-12-16T00:50:34;41.60;;;22.73;;
14205;SDS011;7186;48.800;9.216;2022-12-16T00:53:00;41.37;;;21.33;;
14205;SDS011;7186;48.800;9.216;2022-12-16T00:55:34;41.87;;;22.83;;
14205;SDS011;7186;48.800;9.216;2022-12-16T00:58:00;41.27;;;22.53;;
14205;SDS011;7186;48.800;9.216;2022-12-16T01:00:25;44.23;;;21.40;;
14205;SDS011;7186;48.800;9.216;2022-12-16T01:02:51;36.03;;;19.93;;
14205;SDS011;7186;48.800;9.216;2022-12-16T01:05:17;42.47;;;21.77;;
14205;SDS011;7186;48.800;9.216;2022-12-16T01:07:43;48.03;;;24.63;;
14205;SDS011;7186;48.800;9.216;2022-12-16T01:10:08;41.10;;;22.30;;
14205;SDS011;7186;48.800;9.216;2022-12-16T01:12:34;41.03;;;22.13;;
14205;SDS011;7186;48.800;9.216;2022-12-16T01:15:00;43.93;;;22.33;;
14205;SDS011;7186;48.800;9.216;2022-12-16T01:17:26;39.93;;;20.23;;
14205;SDS011;7186;48.800;9.216;2022-12-16T01:19:51;40.33;;;21.40;;
14205;SDS011;7186;48.800;9.216;2022-12-16T01:22:17;41.33;;;21.23;;
14205;SDS011;7186;48.800;9.216;2022-12-16T01:24:42;42.40;;;20.50;;
14205;SDS011;7186;48.800;9.216;2022-12-16T01:27:08;39.43;;;20.13;;
14205;SDS011;7186;48.800;9.216;2022-12-16T01:29:33;41.80;;;21.43;;
14205;SDS011;7186;48.800;9.216;2022-12-16T01:31:58;38.13;;;20.83;;
14205;SDS011;7186;48.800;9.216;2022-12-16T01:34:24;40.37;;;21.20;;
14205;SDS011;7186;48.800;9.216;2022-12-16T01:36:49;35.90;;;20.80;;
14205;SDS011;7186;48.800;9.216;2022-12-16T01:39:14;37.83;;;20.77;;
14205;SDS011;7186;48.800;9.216;2022-12-16T01:41:39;41.63;;;21.50;;
14205;SDS011;7186;48.800;9.216;2022-12-16T01:44:11;39.23;;;20.83;;
14205;SDS011;7186;48.800;9.216;2022-12-16T01:46:37;40.53;;;20.33;;
14205;SDS011;7186;48.800;9.216;2022-12-16T01:49:03;38.57;;;21.33;;
14205;SDS011;7186;48.800;9.216;2022-12-16T01:54:00;49.87;;;21.83;;
14205;SDS011;7186;48.800;9.216;2022-12-16T01:56:27;42.30;;;21.47;;
14205;SDS011;7186;48.800;9.216;2022-12-16T01:58:54;40.83;;;21.17;;
14205;SDS011;7186;48.800;9.216;2022-12-16T02:01:20;47.50;;;22.93;;
14205;SDS011;7186;48.800;9.216;2022-12-16T02:03:45;41.73;;;21.23;;
14205;SDS011;7186;48.800;9.216;2022-12-16T02:06:11;39.37;;;21.93;;
14205;SDS011;7186;48.800;9.216;2022-12-16T02:08:36;39.07;;;21.47;;
14205;SDS011;7186;48.800;9.216;2022-12-16T02:11:07;39.17;;;20.67;;
14205;SDS011;7186;48.800;9.216;2022-12-16T02:16:16;40.53;;;22.00;;
14205;SDS011;7186;48.800;9.216;2022-12-16T02:24:14;40.67;;;21.20;;
14205;SDS011;7186;48.800;9.216;2022-12-16T02:31:54;36.40;;;21.47;;
14205;SDS011;7186;48.800;9.216;2022-12-16T02:39:37;38.57;;;20.77;;
14205;SDS011;7186;48.800;9.216;2022-12-16T02:42:14;37.70;;;21.60;;
14205;SDS011;7186;48.800;9.216;2022-12-16T02:47:09;44.97;;;21.30;;
14205;SDS011;7186;48.800;9.216;2022-12-16T02:49:40;41.30;;;21.70;;
14205;SDS011;7186;48.800;9.216;2022-12-16T02:52:07;41.67;;;21.60;;
14205;SDS011;7186;48.800;9.216;2022-12-16T02:54:32;43.20;;;21.10;;
14205;SDS011;7186;48.800;9.216;2022-12-16T02:59:59;42.80;;;22.20;;
14205;SDS011;7186;48.800;9.216;2022-12-16T03:02:29;36.70;;;21.00;;
14205;SDS011;7186;48.800;9.216;2022-12-16T03:05:09;38.27;;;20.53;;
14205;SDS011;7186;48.800;9.216;2022-12-16T03:07:37;42.77;;;21.77;;
14205;SDS011;7186;48.800;9.216;2022-12-16T03:10:04;39.93;;;20.97;;
14205;SDS011;7186;48.800;9.216;2022-12-16T03:12:31;44.63;;;21.77;;
14205;SDS011;7186;48.800;9.216;2022-12-16T03:14:57;40.23;;;21.77;;
14205;SDS011;7186;48.800;9.216;2022-12-16T03:17:23;38.67;;;20.77;;
14205;SDS011;7186;48.800;9.216;2022-12-16T03:19:52;37.77;;;20.53;;
14205;SDS011;7186;48.800;9.216;2022-12-16T03:22:26;40.23;;;21.13;;
14205;SDS011;7186;48.800;9.216;2022-12-16T03:24:52;41.57;;;21.60;;
14205;SDS011;7186;48.800;9.216;2022-12-16T03:27:23;41.00;;;21.67;;
14205;SDS011;7186;48.800;9.216;2022-12-16T03:32:37;40.20;;;22.07;;
14205;SDS011;7186;48.800;9.216;2022-12-16T03:35:18;41.43;;;20.30;;
14205;SDS011;7186;48.800;9.216;2022-12-16T03:37:44;41.87;;;21.97;;
14205;SDS011;7186;48.800;9.216;2022-12-16T03:40:10;39.00;;;21.33;;
14205;SDS011;7186;48.800;9.216;2022-12-16T03:42:36;35.77;;;19.73;;
14205;SDS011;7186;48.800;9.216;2022-12-16T03:45:02;39.57;;;20.40;;
14205;SDS011;7186;48.800;9.216;2022-12-16T03:47:28;38.00;;;19.70;;
14205;SDS011;7186;48.800;9.216;2022-12-16T03:49:54;38.37;;;21.10;;
14205;SDS011;7186;48.800;9.216;2022-12-16T03:52:19;40.40;;;20.13;;
14205;SDS011;7186;48.800;9.216;2022-12-16T03:54:44;34.57;;;19.63;;
14205;SDS011;7186;48.800;9.216;2022-12-16T03:57:10;37.60;;;20.37;;
14205;SDS011;7186;48.800;9.216;2022-12-16T03:59:36;32.30;;;19.03;;
14205;SDS011;7186;48.800;9.216;2022-12-16T04:02:01;36.73;;;19.63;;
14205;SDS011;7186;48.800;9.216;2022-12-16T04:04:26;33.97;;;19.07;;
14205;SDS011;7186;48.800;9.216;2022-12-16T04:06:51;38.03;;;20.30;;
14205;SDS011;7186;48.800;9.216;2022-12-16T04:09:36;30.90;;;17.43;;
14205;SDS011;7186;48.800;9.216;2022-12-16T04:12:02;36.13;;;18.20;;
14205;SDS011;7186;48.800;9.216;2022-12-16T04:14:45;36.93;;;19.10;;
14205;SDS011;7186;48.800;9.216;2022-12-16T04:17:29;36.93;;;19.00;;
14205;SDS011;7186;48.800;9.216;2022-12-16T04:20:16;33.97;;;17.37;;
14205;SDS011;7186;48.800;9.216;2022-12-16T04:23:01;35.20;;;18.37;;
14205;SDS011;7186;48.800;9.216;2022-12-16T04:25:45;32.00;;;17.37;;
14205;SDS011;7186;48.800;9.216;2022-12-16T04:28:10;32.43;;;17.70;;
14205;SDS011;7186;48.800;9.216;2022-12-16T04:30:35;31.83;;;17.20;;
14205;SDS011;7186;48.800;9.216;2022-12-16T04:33:04;33.10;;;17.40;;
14205;SDS011;7186;48.800;9.216;2022-12-16T04:35:49;27.20;;;14.93;;
14205;SDS011;7186;48.800;9.216;2022-12-16T04:38:33;31.70;;;15.97;;
14205;SDS011;7186;48.800;9.216;2022-12-16T04:41:17;30.47;;;16.43;;
14205;SDS011;7186;48.800;9.216;2022-12-16T04:44:01;27.37;;;15.30;;
14205;SDS011;7186;48.800;9.216;2022-12-16T04:46:45;31.77;;;16.77;;
14205;SDS011;7186;48.800;9.216;2022-12-16T04:49:29;31.07;;;16.90;;
14205;SDS011;7186;48.800;9.216;2022-12-16T04:52:13;29.17;;;16.27;;
14205;SDS011;7186;48.800;9.216;2022-12-16T04:54:57;31.67;;;16.63;;
14205;SDS011;7186;48.800;9.216;2022-12-16T04:57:42;26.90;;;15.57;;
14205;SDS011;7186;48.800;9.216;2022-12-16T05:00:26;26.73;;;15.30;;
14205;SDS011;7186;48.800;9.216;2022-12-16T05:03:10;30.90;;;16.67;;
14205;SDS011;7186;48.800;9.216;2022-12-16T05:05:54;29.43;;;16.77;;
14205;SDS011;7186;48.800;9.216;2022-12-16T05:08:38;28.50;;;15.67;;
14205;SDS011;7186;48.800;9.216;2022-12-16T05:11:22;31.17;;;16.70;;
14205;SDS011;7186;48.800;9.216;2022-12-16T05:14:06;30.77;;;15.93;;
14205;SDS011;7186;48.800;9.216;2022-12-16T05:16:49;30.17;;;15.73;;
14205;SDS011;7186;48.800;9.216;2022-12-16T05:19:33;30.23;;;17.17;;
14205;SDS011;7186;48.800;9.216;2022-12-16T05:22:17;28.00;;;15.83;;
14205;SDS011;7186;48.800;9.216;2022-12-16T05:25:01;28.97;;;15.80;;
14205;SDS011;7186;48.800;9.216;2022-12-16T05:27:48;28.90;;;15.60;;
14205;SDS011;7186;48.800;9.216;2022-12-16T05:30:32;28.50;;;14.80;;
14205;SDS011;7186;48.800;9.216;2022-12-16T05:33:16;29.00;;;16.63;;
14205;SDS011;7186;48.800;9.216;2022-12-16T05:36:00;26.57;;;15.13;;
14205;SDS011;7186;48.800;9.216;2022-12-16T05:38:44;28.23;;;16.10;;
14205;SDS011;7186;48.800;9.216;2022-12-16T05:41:28;28.83;;;17.00;;
14205;SDS011;7186;48.800;9.216;2022-12-16T05:44:12;28.40;;;15.93;;
14205;SDS011;7186;48.800;9.216;2022-12-16T05:46:56;31.10;;;17.47;;
14205;SDS011;7186;48.800;9.216;2022-12-16T05:49:41;27.57;;;15.20;;
14205;SDS011;7186;48.800;9.216;2022-12-16T05:52:25;32.57;;;17.30;;
14205;SDS011;7186;48.800;9.216;2022-12-16T05:55:09;26.87;;;15.70;;
14205;SDS011;7186;48.800;9.216;2022-12-16T05:57:53;27.93;;;15.93;;
14205;SDS011;7186;48.800;9.216;2022-12-16T06:00:36;29.53;;;15.83;;
14205;SDS011;7186;48.800;9.216;2022-12-16T06:03:21;32.27;;;15.20;;
14205;SDS011;7186;48.800;9.216;2022-12-16T06:06:04;30.33;;;15.80;;
14205;SDS011;7186;48.800;9.216;2022-12-16T06:08:48;26.13;;;14.53;;
14205;SDS011;7186;48.800;9.216;2022-12-16T06:11:32;24.90;;;13.93;;
14205;SDS011;7186;48.800;9.216;2022-12-16T06:14:16;25.90;;;14.53;;
14205;SDS011;7186;48.800;9.216;2022-12-16T06:17:00;26.63;;;13.83;;
14205;SDS011;7186;48.800;9.216;2022-12-16T06:19:44;25.80;;;14.53;;
14205;SDS011;7186;48.800;9.216;2022-12-16T06:22:28;23.27;;;13.60;;
14205;SDS011;7186;48.800;9.216;2022-12-16T06:25:11;27.77;;;14.90;;
14205;SDS011;7186;48.800;9.216;2022-12-16T06:27:55;25.67;;;14.27;;
14205;SDS011;7186;48.800;9.216;2022-12-16T06:30:39;21.10;;;14.17;;
14205;SDS011;7186;48.800;9.216;2022-12-16T06:33:23;22.37;;;12.73;;
14205;SDS011;7186;48.800;9.216;2022-12-16T06:36:08;25.67;;;13.60;;
14205;SDS011;7186;48.800;9.216;2022-12-16T06:38:51;22.77;;;13.77;;
14205;SDS011;7186;48.800;9.216;2022-12-16T06:41:35;22.27;;;12.33;;
14205;SDS011;7186;48.800;9.216;2022-12-16T06:44:19;19.97;;;12.10;;
14205;SDS011;7186;48.800;9.216;2022-12-16T06:47:03;21.50;;;11.90;;
14205;SDS011;7186;48.800;9.216;2022-12-16T06:49:47;22.30;;;12.63;;
14205;SDS011;7186;48.800;9.216;2022-12-16T06:52:30;20.27;;;11.80;;
14205;SDS011;7186;48.800;9.216;2022-12-16T06:55:14;21.90;;;12.83;;
14205;SDS011;7186;48.800;9.216;2022-12-16T06:57:58;19.03;;;11.53;;
14205;SDS011;7186;48.800;9.216;2022-12-16T07:00:42;24.40;;;12.03;;
14205;SDS011;7186;48.800;9.216;2022-12-16T07:03:26;29.67;;;13.63;;
14205;SDS011;7186;48.800;9.216;2022-12-16T07:06:10;27.93;;;12.47;;
14205;SDS011;7186;48.800;9.216;2022-12-16T07:08:54;24.93;;;13.40;;
14205;SDS011;7186;48.800;9.216;2022-12-16T07:11:38;26.50;;;13.17;;
14205;SDS011;7186;48.800;9.216;2022-12-16T07:14:22;21.57;;;12.40;;
14205;SDS011;7186;48.800;9.216;2022-12-16T07:17:06;26.13;;;14.27;;
14205;SDS011;7186;48.800;9.216;2022-12-16T07:19:50;21.83;;;13.53;;
14205;SDS011;7186;48.800;9.216;2022-12-16T07:22:34;26.60;;;14.17;;
14205;SDS011;7186;48.800;9.216;2022-12-16T07:25:18;24.43;;;13.40;;
14205;SDS011;7186;48.800;9.216;2022-12-16T07:28:09;23.20;;;13.77;;
14205;SDS011;7186;48.800;9.216;2022-12-16T07:30:53;26.73;;;13.83;;
14205;SDS011;7186;48.800;9.216;2022-12-16T07:33:37;23.73;;;13.13;;
14205;SDS011;7186;48.800;9.216;2022-12-16T07:36:21;22.90;;;13.23;;
14205;SDS011;7186;48.800;9.216;2022-12-16T07:39:05;23.20;;;13.03;;
14205;SDS011;7186;48.800;9.216;2022-12-16T07:41:48;24.00;;;12.90;;
14205;SDS011;7186;48.800;9.216;2022-12-16T07:44:32;24.67;;;13.13;;
14205;SDS011;7186;48.800;9.216;2022-12-16T07:47:16;21.60;;;11.97;;
14205;SDS011;7186;48.800;9.216;2022-12-16T07:50:00;19.23;;;11.30;;
14205;SDS011;7186;48.800;9.216;2022-12-16T07:52:44;21.07;;;12.00;;
14205;SDS011;7186;48.800;9.216;2022-12-16T07:55:28;21.23;;;11.27;;
14205;SDS011;7186;48.800;9.216;2022-12-16T07:58:12;25.33;;;12.30;;
14205;SDS011;7186;48.800;9.216;2022-12-16T08:00:56;21.30;;;12.03;;
14205;SDS011;7186;48.800;9.216;2022-12-16T08:03:40;19.80;;;10.77;;
14205;SDS011;7186;48.800;9.216;2022-12-16T08:06:24;19.87;;;10.73;;
14205;SDS011;7186;48.800;9.216;2022-12-16T08:09:08;17.13;;;9.97;;
14205;SDS011;7186;48.800;9.216;2022-12-16T08:11:52;20.43;;;10.63;;
14205;SDS011;7186;48.800;9.216;2022-12-16T08:14:36;19.60;;;11.23;;
14205;SDS011;7186;48.800;9.216;2022-12-16T08:17:20;20.50;;;11.03;;
14205;SDS011;7186;48.800;9.216;2022-12-16T08:20:04;19.50;;;10.93;;
14205;SDS011;7186;48.800;9.216;2022-12-16T08:22:48;23.33;;;12.53;;
14205;SDS011;7186;48.800;9.216;2022-12-16T08:25:32;16.40;;;9.90;;
14205;SDS011;7186;48.800;9.216;2022-12-16T08:28:16;19.20;;;9.53;;
14205;SDS011;7186;48.800;9.216;2022-12-16T08:31:00;19.33;;;10.10;;
14205;SDS011;7186;48.800;9.216;2022-12-16T08:33:44;18.10;;;10.97;;
14205;SDS011;7186;48.800;9.216;2022-12-16T08:36:28;19.70;;;9.87;;
14205;SDS011;7186;48.800;9.216;2022-12-16T08:39:12;18.67;;;10.37;;
14205;SDS011;7186;48.800;9.216;2022-12-16T08:41:56;15.20;;;9.50;;
14205;SDS011;7186;48.800;9.216;2022-12-16T08:44:39;18.20;;;10.13;;
14205;SDS011;7186;48.800;9.216;2022-12-16T08:47:23;19.53;;;9.87;;
14205;SDS011;7186;48.800;9.216;2022-12-16T08:50:07;21.30;;;10.70;;
14205;SDS011;7186;48.800;9.216;2022-12-16T08:52:51;17.87;;;9.97;;
14205;SDS011;7186;48.800;9.216;2022-12-16T08:55:35;22.33;;;11.03;;
14205;SDS011;7186;48.800;9.216;2022-12-16T08:58:19;19.00;;;10.27;;
14205;SDS011;7186;48.800;9.216;2022-12-16T09:01:03;17.60;;;10.07;;
14205;SDS011;7186;48.800;9.216;2022-12-16T09:03:47;19.43;;;10.57;;
14205;SDS011;7186;48.800;9.216;2022-12-16T09:06:31;16.07;;;9.87;;
14205;SDS011;7186;48.800;9.216;2022-12-16T09:09:14;15.90;;;10.07;;
14205;SDS011;7186;48.800;9.216;2022-12-16T09:11:58;18.93;;;9.77;;
14205;SDS011;7186;48.800;9.216;2022-12-16T09:14:42;19.47;;;10.27;;
14205;SDS011;7186;48.800;9.216;2022-12-16T09:17:26;17.30;;;10.17;;
14205;SDS011;7186;48.800;9.216;2022-12-16T09:20:10;15.10;;;9.50;;
14205;SDS011;7186;48.800;9.216;2022-12-16T09:22:54;18.67;;;9.47;;
14205;SDS011;7186;48.800;9.216;2022-12-16T09:25:38;14.83;;;8.97;;
14205;SDS011;7186;48.800;9.216;2022-12-16T09:28:22;19.07;;;9.53;;
14205;SDS011;7186;48.800;9.216;2022-12-16T09:31:06;14.57;;;8.80;;
14205;SDS011;7186;48.800;9.216;2022-12-16T09:33:50;15.53;;;9.30;;
14205;SDS011;7186;48.800;9.216;2022-12-16T09:36:35;18.50;;;9.53;;
14205;SDS011;7186;48.800;9.216;2022-12-16T09:39:19;18.97;;;9.30;;
14205;SDS011;7186;48.800;9.216;2022-12-16T09:44:57;13.87;;;9.00;;
14205;SDS011;7186;48.800;9.216;2022-12-16T09:50:44;16.57;;;9.20;;
14205;SDS011;7186;48.800;9.216;2022-12-16T09:53:30;21.13;;;9.60;;
14205;SDS011;7186;48.800;9.216;2022-12-16T09:56:16;16.87;;;9.50;;
14205;SDS011;7186;48.800;9.216;2022-12-16T09:59:02;17.80;;;8.90;;
14205;SDS011;7186;48.800;9.216;2022-12-16T10:01:47;13.73;;;8.47;;
14205;SDS011;7186;48.800;9.216;2022-12-16T10:04:32;14.20;;;8.60;;
14205;SDS011;7186;48.800;9.216;2022-12-16T10:07:17;15.07;;;7.90;;
14205;SDS011;7186;48.800;9.216;2022-12-16T10:25:25;15.17;;;8.30;;
14205;SDS011;7186;48.800;9.216;2022-12-16T10:28:14;17.77;;;8.43;;
14205;SDS011;7186;48.800;9.216;2022-12-16T10:30:58;13.93;;;7.57;;
14205;SDS011;7186;48.800;9.216;2022-12-16T10:33:42;14.70;;;8.40;;
14205;SDS011;7186;48.800;9.216;2022-12-16T10:36:28;14.20;;;8.37;;
14205;SDS011;7186;48.800;9.216;2022-12-16T10:39:21;14.40;;;8.67;;
14205;SDS011;7186;48.800;9.216;2022-12-16T10:42:19;14.83;;;8.03;;
14205;SDS011;7186;48.800;9.216;2022-12-16T10:45:06;15.27;;;8.30;;
14205;SDS011;7186;48.800;9.216;2022-12-16T10:47:53;14.27;;;7.10;;
14205;SDS011;7186;48.800;9.216;2022-12-16T10:50:51;14.00;;;7.93;;
14205;SDS011;7186;48.800;9.216;2022-12-16T10:53:34;14.10;;;7.63;;
14205;SDS011;7186;48.800;9.216;2022-12-16T10:59:03;15.53;;;8.33;;
14205;SDS011;7186;48.800;9.216;2022-12-16T11:01:57;15.47;;;8.03;;
14205;SDS011;7186;48.800;9.216;2022-12-16T11:04:42;15.03;;;7.93;;
14205;SDS011;7186;48.800;9.216;2022-12-16T11:13:33;14.13;;;7.77;;
14205;SDS011;7186;48.800;9.216;2022-12-16T11:16:24;14.10;;;8.43;;
14205;SDS011;7186;48.800;9.216;2022-12-16T11:19:18;14.50;;;7.97;;
14205;SDS011;7186;48.800;9.216;2022-12-16T11:22:06;14.77;;;7.67;;
14205;SDS011;7186;48.800;9.216;2022-12-16T11:25:02;16.20;;;8.40;;
14205;SDS011;7186;48.800;9.216;2022-12-16T11:27:46;13.23;;;8.23;;
14205;SDS011;7186;48.800;9.216;2022-12-16T11:30:30;14.00;;;7.40;;
14205;SDS011;7186;48.800;9.216;2022-12-16T11:33:18;15.40;;;8.17;;
14205;SDS011;7186;48.800;9.216;2022-12-16T11:36:12;17.07;;;7.43;;
14205;SDS011;7186;48.800;9.216;2022-12-16T11:38:56;14.93;;;7.07;;
14205;SDS011;7186;48.800;9.216;2022-12-16T11:41:47;12.13;;;7.67;;
14205;SDS011;7186;48.800;9.216;2022-12-16T11:50:06;13.80;;;7.43;;
14205;SDS011;7186;48.800;9.216;2022-12-16T11:52:52;12.20;;;6.77;;
14205;SDS011;7186;48.800;9.216;2022-12-16T11:55:37;10.50;;;7.00;;
14205;SDS011;7186;48.800;9.216;2022-12-16T11:58:44;16.40;;;7.50;;
14205;SDS011;7186;48.800;9.216;2022-12-16T12:04:27;12.23;;;7.73;;
14205;SDS011;7186;48.800;9.216;2022-12-16T12:15:56;13.37;;;7.20;;
14205;SDS011;7186;48.800;9.216;2022-12-16T12:21:51;13.33;;;7.40;;
14205;SDS011;7186;48.800;9.216;2022-12-16T12:30:25;11.37;;;6.90;;
14205;SDS011;7186;48.800;9.216;2022-12-16T12:36:01;15.27;;;7.67;;
14205;SDS011;7186;48.800;9.216;2022-12-16T12:39:01;12.53;;;7.03;;
14205;SDS011;7186;48.800;9.216;2022-12-16T12:41:56;13.23;;;7.73;;
14205;SDS011;7186;48.800;9.216;2022-12-16T12:44:52;12.37;;;7.63;;
14205;SDS011;7186;48.800;9.216;2022-12-16T12:47:41;12.87;;;7.57;;
14205;SDS011;7186;48.800;9.216;2022-12-16T12:50:30;9.93;;;6.27;;
14205;SDS011;7186;48.800;9.216;2022-12-16T12:59:15;11.77;;;7.90;;
14205;SDS011;7186;48.800;9.216;2022-12-16T13:02:02;16.87;;;7.20;;
14205;SDS011;7186;48.800;9.216;2022-12-16T13:04:48;13.00;;;6.97;;
14205;SDS011;7186;48.800;9.216;2022-12-16T13:07:33;14.80;;;7.80;;
14205;SDS011;7186;48.800;9.216;2022-12-16T13:10:38;16.20;;;8.07;;
14205;SDS011;7186;48.800;9.216;2022-12-16T13:13:28;12.23;;;7.20;;
14205;SDS011;7186;48.800;9.216;2022-12-16T13:16:14;13.60;;;7.63;;
14205;SDS011;7186;48.800;9.216;2022-12-16T13:28:18;12.13;;;6.73;;
14205;SDS011;7186;48.800;9.216;2022-12-16T13:31:03;12.83;;;7.00;;
14205;SDS011;7186;48.800;9.216;2022-12-16T13:33:50;13.70;;;7.20;;
14205;SDS011;7186;48.800;9.216;2022-12-16T13:36:34;11.33;;;7.03;;
14205;SDS011;7186;48.800;9.216;2022-12-16T13:39:20;11.50;;;7.03;;
14205;SDS011;7186;48.800;9.216;2022-12-16T13:42:04;13.63;;;7.43;;
14205;SDS011;7186;48.800;9.216;2022-12-16T13:50:44;11.77;;;6.80;;
14205;SDS011;7186;48.800;9.216;2022-12-16T13:53:32;11.50;;;7.07;;
14205;SDS011;7186;48.800;9.216;2022-12-16T13:56:18;12.27;;;6.93;;
14205;SDS011;7186;48.800;9.216;2022-12-16T13:59:03;11.47;;;6.57;;
14205;SDS011;7186;48.800;9.216;2022-12-16T14:05:17;12.40;;;8.07;;
14205;SDS011;7186;48.800;9.216;2022-12-16T14:08:02;12.53;;;7.37;;
14205;SDS011;7186;48.800;9.216;2022-12-16T14:10:46;10.90;;;7.00;;
14205;SDS011;7186;48.800;9.216;2022-12-16T14:13:40;10.87;;;6.70;;
14205;SDS011;7186;48.800;9.216;2022-12-16T14:16:33;16.87;;;8.03;;
14205;SDS011;7186;48.800;9.216;2022-12-16T14:19:22;12.50;;;7.90;;
14205;SDS011;7186;48.800;9.216;2022-12-16T14:27:55;15.53;;;8.27;;
14205;SDS011;7186;48.800;9.216;2022-12-16T14:30:40;13.83;;;7.47;;
14205;SDS011;7186;48.800;9.216;2022-12-16T14:33:25;14.57;;;8.67;;
14205;SDS011;7186;48.800;9.216;2022-12-16T14:39:02;12.90;;;7.37;;
14205;SDS011;7186;48.800;9.216;2022-12-16T14:41:49;15.60;;;8.37;;
14205;SDS011;7186;48.800;9.216;2022-12-16T14:44:33;15.10;;;8.03;;
14205;SDS011;7186;48.800;9.216;2022-12-16T14:47:18;10.80;;;7.17;;
14205;SDS011;7186;48.800;9.216;2022-12-16T14:50:02;17.27;;;8.37;;
14205;SDS011;7186;48.800;9.216;2022-12-16T14:52:46;13.10;;;7.20;;
14205;SDS011;7186;48.800;9.216;2022-12-16T14:55:32;11.93;;;7.80;;
14205;SDS011;7186;48.800;9.216;2022-12-16T14:58:17;15.97;;;8.53;;
14205;SDS011;7186;48.800;9.216;2022-12-16T15:01:03;10.93;;;6.53;;
14205;SDS011;7186;48.800;9.216;2022-12-16T15:03:48;12.77;;;7.60;;
14205;SDS011;7186;48.800;9.216;2022-12-16T15:06:33;14.80;;;7.43;;
14205;SDS011;7186;48.800;9.216;2022-12-16T15:09:29;12.67;;;7.70;;
14205;SDS011;7186;48.800;9.216;2022-12-16T15:12:14;15.03;;;8.00;;
14205;SDS011;7186;48.800;9.216;2022-12-16T15:15:02;12.07;;;7.57;;
14205;SDS011;7186;48.800;9.216;2022-12-16T15:17:55;13.17;;;7.47;;
14205;SDS011;7186;48.800;9.216;2022-12-16T15:23:30;14.03;;;7.57;;
14205;SDS011;7186;48.800;9.216;2022-12-16T15:26:16;13.87;;;8.27;;
14205;SDS011;7186;48.800;9.216;2022-12-16T15:29:00;13.90;;;7.37;;
14205;SDS011;7186;48.800;9.216;2022-12-16T15:31:44;13.20;;;8.00;;
14205;SDS011;7186;48.800;9.216;2022-12-16T15:34:34;14.13;;;8.13;;
14205;SDS011;7186;48.800;9.216;2022-12-16T15:37:23;11.77;;;7.40;;
14205;SDS011;7186;48.800;9.216;2022-12-16T15:40:18;15.67;;;7.90;;
14205;SDS011;7186;48.800;9.216;2022-12-16T15:46:24;13.00;;;7.53;;
14205;SDS011;7186;48.800;9.216;2022-12-16T15:49:24;17.97;;;8.87;;
14205;SDS011;7186;48.800;9.216;2022-12-16T15:52:20;16.53;;;8.63;;
14205;SDS011;7186;48.800;9.216;2022-12-16T15:55:20;14.90;;;7.90;;
14205;SDS011;7186;48.800;9.216;2022-12-16T15:58:10;12.83;;;7.80;;
14205;SDS011;7186;48.800;9.216;2022-12-16T16:00:55;12.03;;;8.30;;
14205;SDS011;7186;48.800;9.216;2022-12-16T16:03:39;12.10;;;6.53;;
14205;SDS011;7186;48.800;9.216;2022-12-16T16:06:23;12.87;;;7.53;;
14205;SDS011;7186;48.800;9.216;2022-12-16T16:09:11;13.43;;;8.20;;
14205;SDS011;7186;48.800;9.216;2022-12-16T16:11:54;13.13;;;7.87;;
14205;SDS011;7186;48.800;9.216;2022-12-16T16:14:40;17.93;;;7.97;;
14205;SDS011;7186;48.800;9.216;2022-12-16T16:17:23;13.30;;;7.80;;
14205;SDS011;7186;48.800;9.216;2022-12-16T16:20:11;14.80;;;7.90;;
14205;SDS011;7186;48.800;9.216;2022-12-16T16:22:55;13.67;;;7.70;;
14205;SDS011;7186;48.800;9.216;2022-12-16T16:25:39;13.77;;;7.40;;
14205;SDS011;7186;48.800;9.216;2022-12-16T16:28:23;12.67;;;8.10;;
14205;SDS011;7186;48.800;9.216;2022-12-16T16:31:08;14.23;;;9.07;;
14205;SDS011;7186;48.800;9.216;2022-12-16T16:33:52;12.10;;;7.80;;
14205;SDS011;7186;48.800;9.216;2022-12-16T16:36:36;14.13;;;8.67;;
14205;SDS011;7186;48.800;9.216;2022-12-16T16:39:20;14.10;;;9.13;;
14205;SDS011;7186;48.800;9.216;2022-12-16T16:42:04;15.03;;;8.43;;
14205;SDS011;7186;48.800;9.216;2022-12-16T16:44:48;18.43;;;9.20;;
14205;SDS011;7186;48.800;9.216;2022-12-16T16:47:32;13.13;;;8.43;;
14205;SDS011;7186;48.800;9.216;2022-12-16T16:50:16;15.57;;;8.70;;
14205;SDS011;7186;48.800;9.216;2022-12-16T16:52:59;16.73;;;8.97;;
14205;SDS011;7186;48.800;9.216;2022-12-16T16:55:43;17.70;;;9.30;;
14205;SDS011;7186;48.800;9.216;2022-12-16T16:58:28;18.03;;;8.97;;
14205;SDS011;7186;48.800;9.216;2022-12-16T17:01:13;14.93;;;9.10;;
14205;SDS011;7186;48.800;9.216;2022-12-16T17:03:57;16.70;;;9.17;;
14205;SDS011;7186;48.800;9.216;2022-12-16T17:06:41;15.67;;;9.60;;
14205;SDS011;7186;48.800;9.216;2022-12-16T17:09:25;23.73;;;9.80;;
14205;SDS011;7186;48.800;9.216;2022-12-16T17:12:19;18.03;;;8.87;;
14205;SDS011;7186;48.800;9.216;2022-12-16T17:15:11;14.90;;;9.50;;
14205;SDS011;7186;48.800;9.216;2022-12-16T17:17:56;15.80;;;9.47;;
14205;SDS011;7186;48.800;9.216;2022-12-16T17:20:40;17.77;;;9.57;;
14205;SDS011;7186;48.800;9.216;2022-12-16T17:23:23;15.23;;;10.03;;
14205;SDS011;7186;48.800;9.216;2022-12-16T17:26:08;14.07;;;9.37;;
14205;SDS011;7186;48.800;9.216;2022-12-16T17:28:52;17.20;;;10.23;;
14205;SDS011;7186;48.800;9.216;2022-12-16T17:31:36;15.17;;;9.90;;
14205;SDS011;7186;48.800;9.216;2022-12-16T17:34:20;15.57;;;9.30;;
14205;SDS011;7186;48.800;9.216;2022-12-16T17:37:04;19.77;;;10.30;;
14205;SDS011;7186;48.800;9.216;2022-12-16T17:39:48;17.53;;;10.30;;
14205;SDS011;7186;48.800;9.216;2022-12-16T17:42:32;22.37;;;10.73;;
14205;SDS011;7186;48.800;9.216;2022-12-16T17:45:16;18.00;;;11.30;;
14205;SDS011;7186;48.800;9.216;2022-12-16T17:48:00;17.53;;;10.70;;
14205;SDS011;7186;48.800;9.216;2022-12-16T17:50:43;21.40;;;11.33;;
14205;SDS011;7186;48.800;9.216;2022-12-16T17:53:29;21.93;;;11.83;;
14205;SDS011;7186;48.800;9.216;2022-12-16T17:56:13;19.97;;;10.93;;
14205;SDS011;7186;48.800;9.216;2022-12-16T17:58:57;19.97;;;10.53;;
14205;SDS011;7186;48.800;9.216;2022-12-16T18:01:41;21.73;;;11.40;;
14205;SDS011;7186;48.800;9.216;2022-12-16T18:04:24;21.30;;;12.10;;
14205;SDS011;7186;48.800;9.216;2022-12-16T18:07:08;19.90;;;11.40;;
14205;SDS011;7186;48.800;9.216;2022-12-16T18:09:52;22.87;;;11.37;;